Perea, New Mexico
Current Conditions -  °F | °C
As of 1:53 PM on Monday 22 Dec 2014 (Local Time) from KGUP Reporting Station
Few Clouds Few Clouds  
Wind Chill: 52°   Ceiling: Unl
Heat Index: 52°   Visibility: 10mi
Dew Point: 32°   Wind: 17mph
Humidity: 47%   Direction: 290°WNW
Pressure: 29.86"   Gusts: 31mph
Location:  35.4212°N, 108.53°W
Report Text: KGUP 222053Z AUTO 29015G27KT 10SM FEW050 11/00 A2986 RMK AO2 PK WND 29031/2028 WSHFT 2002 SLP062 T01110000 56036
Loading
Personal Weather Stations






























Interactive Weather Map New forecast layout! Learn more

10-Day Weather Forecast

Advertisements
Track Severe Weather on mobile